createdAt,value
2024-05-09T00:01:55.229Z,102825.34
2024-05-09T00:04:27.808Z,102812.06
2024-05-09T00:06:57.619Z,102830.84
2024-05-09T00:09:27.391Z,102805.34
2024-05-09T00:11:57.392Z,102807.94
2024-05-09T00:14:27.270Z,102793.72
2024-05-09T00:16:57.226Z,102779.56
2024-05-09T00:19:29.891Z,102795.03
2024-05-09T00:21:59.736Z,102805.75
2024-05-09T00:24:29.490Z,102800.53
2024-05-09T00:26:59.276Z,102774.28
2024-05-09T00:29:29.151Z,102805.03
2024-05-09T00:31:59.086Z,102763.81
2024-05-09T00:34:31.638Z,102811.22
2024-05-09T00:37:01.614Z,102810.47
2024-05-09T00:39:31.485Z,102806.06
2024-05-09T00:42:01.239Z,102782.38
2024-05-09T00:44:31.089Z,102795.69
2024-05-09T00:47:00.997Z,102772.13
2024-05-09T00:49:33.598Z,102780.09
2024-05-09T00:52:03.394Z,102789.03
2024-05-09T00:54:33.186Z,102788.06
2024-05-09T00:57:05.256Z,102789.91
2024-05-09T00:59:35.256Z,102777.66
2024-05-09T01:02:05.222Z,102737.41
2024-05-09T01:04:37.745Z,102787.53
2024-05-09T01:07:07.664Z,102791.13
2024-05-09T01:09:37.456Z,102775.31
2024-05-09T01:12:09.651Z,102778.03
2024-05-09T01:14:39.859Z,102783.44
2024-05-09T01:17:09.964Z,102786.06
2024-05-09T01:19:42.469Z,102794.94
2024-05-09T01:22:12.409Z,102780.78
2024-05-09T01:24:44.807Z,102753.00
2024-05-09T01:27:14.552Z,102784.47
2024-05-09T01:29:44.347Z,102759.88
2024-05-09T01:32:14.258Z,102775.75
2024-05-09T01:34:44.092Z,102787.31
2024-05-09T01:37:13.866Z,102782.09
2024-05-09T01:39:46.293Z,102777.75
2024-05-09T01:42:16.569Z,102784.00
2024-05-09T01:44:47.061Z,102783.16
2024-05-09T01:47:16.960Z,102769.19
2024-05-09T01:49:46.857Z,102789.53
2024-05-09T01:52:16.710Z,102772.81
2024-05-09T01:54:49.183Z,102777.22
2024-05-09T01:57:19.016Z,102779.13
2024-05-09T01:59:48.736Z,102780.84
2024-05-09T02:02:18.833Z,102743.03
2024-05-09T02:04:50.234Z,102777.31
2024-05-09T02:07:20.447Z,102773.78
2024-05-09T02:09:54.368Z,102772.94
2024-05-09T02:12:24.215Z,102771.22
2024-05-09T02:14:54.622Z,102768.72
2024-05-09T02:17:24.542Z,102778.53
2024-05-09T02:19:54.565Z,102771.59
2024-05-09T02:22:24.373Z,102766.47
2024-05-09T02:24:56.988Z,102790.31
2024-05-09T02:27:26.786Z,102786.91
2024-05-09T02:29:56.646Z,102779.19
2024-05-09T02:32:26.524Z,102786.34
2024-05-09T02:34:53.861Z,102767.97
2024-05-09T02:37:23.721Z,102783.81
2024-05-09T02:39:53.585Z,102780.44
2024-05-09T02:42:23.334Z,102784.06
2024-05-09T02:44:50.439Z,102788.63
2024-05-09T02:47:20.403Z,102778.88
2024-05-09T02:49:47.673Z,102788.72
2024-05-09T02:52:20.045Z,102778.09
2024-05-09T02:54:47.251Z,102792.28
2024-05-09T02:57:19.659Z,102732.63
2024-05-09T02:59:47.471Z,102795.94
2024-05-09T03:02:17.348Z,102792.34
2024-05-09T03:04:45.227Z,102791.50
2024-05-09T03:07:20.217Z,102772.00
2024-05-09T03:09:47.597Z,102796.75
2024-05-09T03:12:20.246Z,102803.84
2024-05-09T03:14:50.272Z,102795.09
2024-05-09T03:17:20.177Z,102801.41
2024-05-09T03:19:47.361Z,102791.66
2024-05-09T03:22:17.145Z,102797.03
2024-05-09T03:24:44.292Z,102773.34
2024-05-09T03:27:14.108Z,102796.28
2024-05-09T03:29:43.927Z,102796.31
2024-05-09T03:32:14.055Z,102789.28
2024-05-09T03:34:41.246Z,102790.13
2024-05-09T03:37:11.093Z,102790.16
2024-05-09T03:39:40.907Z,102796.22
2024-05-09T03:42:10.811Z,102801.28
2024-05-09T03:44:41.464Z,102771.19
2024-05-09T03:47:14.074Z,102779.88
2024-05-09T03:49:41.304Z,102772.72
2024-05-09T03:52:11.642Z,102791.09
2024-05-09T03:54:45.131Z,102778.66
2024-05-09T03:57:15.115Z,102727.63
2024-05-09T03:59:42.251Z,102786.47
2024-05-09T04:02:14.707Z,102772.13
2024-05-09T04:04:42.354Z,102775.75
2024-05-09T04:07:12.200Z,102778.41
2024-05-09T04:09:39.486Z,102760.69
2024-05-09T04:12:10.601Z,102766.78
2024-05-09T04:14:37.902Z,102750.03
2024-05-09T04:17:08.188Z,102762.31
2024-05-09T04:19:38.093Z,102743.91
2024-05-09T04:22:08.059Z,102769.44
2024-05-09T04:24:35.400Z,102764.13
2024-05-09T04:27:05.159Z,102758.88
2024-05-09T04:29:32.405Z,102758.88
2024-05-09T04:32:02.329Z,102759.75
2024-05-09T04:34:29.818Z,102754.41
2024-05-09T04:37:02.405Z,102758.03
2024-05-09T04:39:29.739Z,102757.09
2024-05-09T04:41:59.652Z,102763.28
2024-05-09T04:44:26.874Z,102753.47
2024-05-09T04:46:56.851Z,102728.03
2024-05-09T04:49:24.232Z,102761.38
2024-05-09T04:51:54.351Z,102762.25
2024-05-09T04:54:33.676Z,102743.56
2024-05-09T04:57:06.292Z,102754.06
2024-05-09T04:59:33.538Z,102749.56
2024-05-09T05:02:03.462Z,102751.34
2024-05-09T05:04:31.328Z,102745.22
2024-05-09T05:07:02.903Z,102744.38
2024-05-09T05:09:32.941Z,102749.56
2024-05-09T05:12:05.704Z,102759.28
2024-05-09T05:14:33.056Z,102742.53
2024-05-09T05:17:02.918Z,102745.00
2024-05-09T05:19:30.273Z,102748.38
2024-05-09T05:22:00.176Z,102728.06
2024-05-09T05:24:27.306Z,102744.75
2024-05-09T05:26:59.698Z,102733.06
2024-05-09T05:29:26.931Z,102744.41
2024-05-09T05:31:56.799Z,102738.28
2024-05-09T05:34:23.990Z,102718.63
2024-05-09T05:36:53.792Z,102701.84
2024-05-09T05:39:20.944Z,102736.00
2024-05-09T05:41:50.722Z,102733.31
2024-05-09T05:44:23.296Z,102730.56
2024-05-09T05:46:50.974Z,102732.19
2024-05-09T05:49:21.036Z,102740.91
2024-05-09T05:51:48.275Z,102738.00
2024-05-09T05:54:18.090Z,102744.84
2024-05-09T05:56:45.310Z,102743.06
2024-05-09T05:59:15.574Z,102751.66
2024-05-09T06:01:45.648Z,102760.31
2024-05-09T06:04:15.474Z,102760.13
2024-05-09T06:06:42.646Z,102769.75
2024-05-09T06:09:12.447Z,102774.06
2024-05-09T06:11:40.259Z,102772.13
2024-05-09T06:14:10.144Z,102786.97
2024-05-09T06:16:37.350Z,102778.53
2024-05-09T06:19:09.791Z,102749.56
2024-05-09T06:21:36.952Z,102769.59
2024-05-09T06:24:06.979Z,102769.34
2024-05-09T06:26:34.261Z,102783.34
2024-05-09T06:29:04.138Z,102759.47
2024-05-09T06:31:31.297Z,102774.34
2024-05-09T06:34:01.268Z,102770.78
2024-05-09T06:36:31.090Z,102780.31
2024-05-09T06:39:01.076Z,102772.06
2024-05-09T06:41:28.405Z,102770.25
2024-05-09T06:43:58.334Z,102765.56
2024-05-09T06:46:26.075Z,102768.09
2024-05-09T06:48:56.317Z,102752.84
2024-05-09T06:51:23.614Z,102758.75
2024-05-09T06:53:57.162Z,102718.09
2024-05-09T06:56:24.415Z,102752.25
2024-05-09T06:58:54.514Z,102762.81
2024-05-09T07:01:21.750Z,102767.03
2024-05-09T07:03:51.609Z,102759.78
2024-05-09T07:06:18.845Z,102761.34
2024-05-09T07:08:48.959Z,102742.81
2024-05-09T07:11:21.188Z,102758.53
2024-05-09T07:13:51.091Z,102753.78
2024-05-09T07:16:18.389Z,102745.75
2024-05-09T07:18:49.834Z,102752.44
2024-05-09T07:21:17.282Z,102745.22
2024-05-09T07:23:47.527Z,102755.75
2024-05-09T07:26:14.741Z,102745.06
2024-05-09T07:28:47.308Z,102763.09
2024-05-09T07:31:15.944Z,102765.56
2024-05-09T07:33:45.834Z,102755.47
2024-05-09T07:36:13.151Z,102756.09
2024-05-09T07:38:42.973Z,102751.53
2024-05-09T07:41:10.243Z,102766.19
2024-05-09T07:43:40.033Z,102767.53
2024-05-09T07:47:13.729Z,102757.41
2024-05-09T07:50:35.890Z,102758.78
2024-05-09T07:53:20.462Z,102752.22
2024-05-09T07:54:37.983Z,102767.03
2024-05-09T07:57:08.221Z,102765.13
2024-05-09T07:59:37.761Z,102735.91
2024-05-09T08:02:10.882Z,102758.59
2024-05-09T08:04:38.290Z,102749.78
2024-05-09T08:07:08.270Z,102762.63
2024-05-09T08:09:38.583Z,102759.59
2024-05-09T08:12:09.466Z,102761.47
2024-05-09T08:14:36.635Z,102743.09
2024-05-09T08:17:06.648Z,102752.88
2024-05-09T08:19:37.886Z,102768.47
2024-05-09T08:22:09.433Z,102774.69
2024-05-09T08:24:36.677Z,102769.25
2024-05-09T08:27:06.789Z,102775.44
2024-05-09T08:29:33.920Z,102761.69
2024-05-09T08:32:05.909Z,102758.72
2024-05-09T08:34:35.822Z,102752.94
2024-05-09T08:37:13.011Z,102768.72
2024-05-09T08:39:46.628Z,102765.75
2024-05-09T08:42:16.901Z,102771.66
2024-05-09T08:44:44.703Z,102758.00
2024-05-09T08:47:14.543Z,102763.88
2024-05-09T08:49:44.522Z,102763.69
2024-05-09T08:52:14.293Z,102760.59
2024-05-09T08:54:41.504Z,102752.22
2024-05-09T08:57:11.328Z,102761.59
2024-05-09T08:59:38.511Z,102748.69
2024-05-09T09:02:09.271Z,102739.69
2024-05-09T09:04:38.041Z,102743.47
2024-05-09T09:07:11.016Z,102742.31
2024-05-09T09:09:43.752Z,102741.88
2024-05-09T09:12:14.665Z,102724.56
2024-05-09T09:14:41.815Z,102725.84
2024-05-09T09:17:17.887Z,102725.06
2024-05-09T09:19:45.115Z,102718.44
2024-05-09T09:22:19.845Z,102726.78
2024-05-09T09:24:47.071Z,102721.00
2024-05-09T09:27:16.952Z,102738.25
2024-05-09T09:29:44.105Z,102730.63
2024-05-09T09:32:13.876Z,102727.63
2024-05-09T09:34:41.692Z,102727.00
2024-05-09T09:37:12.983Z,102722.91
2024-05-09T09:39:48.974Z,102720.41
2024-05-09T09:42:19.098Z,102713.25
2024-05-09T09:44:54.571Z,102714.22
2024-05-09T09:47:31.743Z,102706.41
2024-05-09T09:49:59.129Z,102703.97
2024-05-09T09:52:29.043Z,102707.72
2024-05-09T09:54:59.355Z,102698.06
2024-05-09T09:57:29.298Z,102707.13
2024-05-09T09:59:56.427Z,102679.19
2024-05-09T10:02:26.339Z,102702.09
2024-05-09T10:04:54.186Z,102701.44
2024-05-09T10:07:24.099Z,102686.75
2024-05-09T10:09:55.353Z,102687.50
2024-05-09T10:12:27.869Z,102691.97
2024-05-09T10:14:55.139Z,102694.84
2024-05-09T10:17:25.126Z,102692.41
2024-05-09T10:19:52.354Z,102692.06
2024-05-09T10:22:30.987Z,102702.09
2024-05-09T10:25:05.185Z,102696.16
2024-05-09T10:27:37.808Z,102700.25
2024-05-09T10:30:11.537Z,102698.88
2024-05-09T10:32:44.738Z,102684.34
2024-05-09T10:35:13.153Z,102692.31
2024-05-09T10:37:42.993Z,102688.03
2024-05-09T10:40:23.088Z,102682.19
2024-05-09T10:43:04.522Z,102685.22
2024-05-09T10:45:35.332Z,102682.22
2024-05-09T10:48:05.455Z,102686.56
2024-05-09T10:50:34.451Z,102683.44
2024-05-09T10:53:05.583Z,102681.13
2024-05-09T10:55:32.876Z,102679.97
2024-05-09T10:58:05.648Z,102662.31
2024-05-09T11:00:36.114Z,102670.88
2024-05-09T11:03:07.015Z,102673.63
2024-05-09T11:05:34.902Z,102670.41
2024-05-09T11:08:04.961Z,102665.16
2024-05-09T11:10:34.323Z,102644.13
2024-05-09T11:13:07.568Z,102660.66
2024-05-09T11:15:39.064Z,102655.09
2024-05-09T11:18:09.108Z,102657.16
2024-05-09T11:20:36.660Z,102643.16
2024-05-09T11:23:07.846Z,102641.00
2024-05-09T11:25:34.968Z,102648.91
2024-05-09T11:28:08.459Z,102646.31
2024-05-09T11:30:35.811Z,102634.59
2024-05-09T11:33:05.701Z,102608.06
2024-05-09T11:35:33.252Z,102640.75
2024-05-09T11:38:03.036Z,102634.31
2024-05-09T11:40:34.567Z,102626.63
2024-05-09T11:43:05.472Z,102627.22
2024-05-09T11:45:35.395Z,102621.78
2024-05-09T11:48:03.609Z,102625.22
2024-05-09T11:50:35.884Z,102604.47
2024-05-09T11:53:03.563Z,102606.09
2024-05-09T11:55:36.451Z,102610.25
2024-05-09T11:58:06.549Z,102606.38
2024-05-09T12:00:37.735Z,102599.47
2024-05-09T12:03:06.183Z,102593.31
2024-05-09T12:05:36.371Z,102593.34
2024-05-09T12:08:03.860Z,102589.66
2024-05-09T12:10:35.977Z,102578.00
2024-05-09T12:13:07.499Z,102583.91
2024-05-09T12:15:39.139Z,102572.97
2024-05-09T12:18:07.431Z,102577.44
2024-05-09T12:20:39.877Z,102566.28
2024-05-09T12:23:08.884Z,102563.94
2024-05-09T12:25:40.203Z,102556.53
2024-05-09T12:28:10.378Z,102557.97
2024-05-09T12:30:41.593Z,102554.72
2024-05-09T12:33:09.798Z,102559.41
2024-05-09T12:35:40.162Z,102553.47
2024-05-09T12:38:07.488Z,102534.94
2024-05-09T12:40:38.960Z,102534.66
2024-05-09T12:43:10.509Z,102544.00
2024-05-09T12:45:41.197Z,102540.56
2024-05-09T12:48:12.321Z,102539.38
2024-05-09T12:50:43.161Z,102550.66
2024-05-09T12:53:10.600Z,102533.34
2024-05-09T12:55:48.368Z,102525.97
2024-05-09T12:58:24.393Z,102538.44
2024-05-09T13:00:54.555Z,102509.47
2024-05-09T13:03:22.292Z,102519.50
2024-05-09T13:05:52.503Z,102516.75
2024-05-09T13:08:20.123Z,102517.78
2024-05-09T13:10:50.326Z,102515.50
2024-05-09T13:13:17.642Z,102492.63
2024-05-09T13:15:50.296Z,102514.84
2024-05-09T13:18:17.521Z,102516.78
2024-05-09T13:20:47.293Z,102522.28
2024-05-09T13:23:14.405Z,102519.88
2024-05-09T13:25:44.304Z,102508.81
2024-05-09T13:28:11.593Z,102512.28
2024-05-09T13:30:42.351Z,102507.44
2024-05-09T13:33:13.917Z,102500.66
2024-05-09T13:35:48.541Z,102505.41
2024-05-09T13:38:17.897Z,102518.22
2024-05-09T13:40:48.315Z,102512.25
2024-05-09T13:43:15.910Z,102505.34
2024-05-09T13:45:46.135Z,102477.28
2024-05-09T13:48:16.260Z,102494.97
2024-05-09T13:50:46.168Z,102476.94
2024-05-09T13:53:13.322Z,102493.06
2024-05-09T13:55:43.242Z,102481.75
2024-05-09T13:58:10.463Z,102461.88
2024-05-09T14:00:46.640Z,102487.44
2024-05-09T14:03:20.221Z,102488.63
2024-05-09T14:05:52.319Z,102485.59
2024-05-09T14:08:21.561Z,102478.34
2024-05-09T14:10:52.370Z,102474.50
2024-05-09T14:13:20.108Z,102479.84
2024-05-09T14:15:50.269Z,102462.53
2024-05-09T14:18:20.566Z,102469.47
2024-05-09T14:20:50.511Z,102469.69
2024-05-09T14:23:18.081Z,102466.97
2024-05-09T14:25:51.834Z,102466.06
2024-05-09T14:28:19.933Z,102427.38
2024-05-09T14:30:49.893Z,102462.31
2024-05-09T14:33:25.555Z,102453.41
2024-05-09T14:35:55.731Z,102436.22
2024-05-09T14:38:23.324Z,102450.34
2024-05-09T14:40:53.516Z,102443.66
2024-05-09T14:43:20.952Z,102460.72
2024-05-09T14:45:50.954Z,102459.63
2024-05-09T14:48:21.282Z,102448.44
2024-05-09T14:50:51.293Z,102448.94
2024-05-09T14:53:18.432Z,102449.41
2024-05-09T14:55:49.823Z,102444.16
2024-05-09T14:58:17.373Z,102449.56
2024-05-09T15:00:51.165Z,102435.75
2024-05-09T15:03:22.432Z,102435.34
2024-05-09T15:05:53.079Z,102434.22
2024-05-09T15:08:20.599Z,102421.03
2024-05-09T15:10:51.034Z,102423.94
2024-05-09T15:13:18.780Z,102427.63
2024-05-09T15:15:48.840Z,102434.03
2024-05-09T15:18:16.508Z,102429.75
2024-05-09T15:20:49.210Z,102428.34
2024-05-09T15:23:16.586Z,102415.06
2024-05-09T15:25:47.170Z,102423.00
2024-05-09T15:28:14.357Z,102415.38
2024-05-09T15:30:46.493Z,102415.16
2024-05-09T15:33:14.464Z,102414.91
2024-05-09T15:35:46.769Z,102409.31
2024-05-09T15:38:18.526Z,102405.13
2024-05-09T15:40:48.774Z,102408.09
2024-05-09T15:43:16.386Z,102385.28
2024-05-09T15:45:46.603Z,102405.63
2024-05-09T15:48:14.458Z,102395.63
2024-05-09T15:50:44.934Z,102400.16
2024-05-09T15:53:13.321Z,102395.66
2024-05-09T15:55:46.196Z,102399.88
2024-05-09T15:58:13.659Z,102396.63
2024-05-09T16:00:45.679Z,102390.63
2024-05-09T16:03:15.105Z,102389.50
2024-05-09T16:05:46.964Z,102388.28
2024-05-09T16:08:15.033Z,102386.75
2024-05-09T16:10:48.287Z,102373.50
2024-05-09T16:13:16.077Z,102382.53
2024-05-09T16:15:46.522Z,102381.78
2024-05-09T16:18:13.924Z,102360.22
2024-05-09T16:20:45.518Z,102371.66
2024-05-09T16:23:14.366Z,102372.69
2024-05-09T16:25:46.451Z,102370.88
2024-05-09T16:28:16.425Z,102363.53
2024-05-09T16:30:46.341Z,102374.09
2024-05-09T16:33:13.926Z,102371.25
2024-05-09T16:35:43.834Z,102377.00
2024-05-09T16:38:10.967Z,102378.50
2024-05-09T16:40:41.629Z,102375.75
2024-05-09T16:43:09.903Z,102364.41
2024-05-09T16:45:44.178Z,102356.81
2024-05-09T16:48:11.774Z,102327.63
2024-05-09T16:50:41.793Z,102367.31
2024-05-09T16:53:08.984Z,102359.34
2024-05-09T16:55:39.080Z,102347.72
2024-05-09T16:58:08.231Z,102362.63
2024-05-09T17:00:42.342Z,102362.22
2024-05-09T17:03:15.180Z,102351.53
2024-05-09T17:05:47.030Z,102359.56
2024-05-09T17:08:15.696Z,102347.53
2024-05-09T17:10:45.784Z,102361.78
2024-05-09T17:13:15.765Z,102344.03
2024-05-09T17:15:45.858Z,102331.22
2024-05-09T17:18:18.441Z,102340.72
2024-05-09T17:20:45.873Z,102343.34
2024-05-09T17:23:16.057Z,102346.59
2024-05-09T17:25:43.274Z,102333.81
2024-05-09T17:28:13.515Z,102347.34
2024-05-09T17:30:42.234Z,102337.19
2024-05-09T17:33:13.434Z,102313.97
2024-05-09T17:35:46.125Z,102337.19
2024-05-09T17:38:16.069Z,102337.56
2024-05-09T17:40:43.395Z,102340.53
2024-05-09T17:43:13.309Z,102349.16
2024-05-09T17:45:41.491Z,102336.19
2024-05-09T17:48:12.558Z,102336.41
2024-05-09T17:50:40.213Z,102342.72
2024-05-09T17:53:13.408Z,102342.41
2024-05-09T17:55:40.956Z,102344.00
2024-05-09T17:58:11.670Z,102321.28
2024-05-09T18:00:41.751Z,102320.81
2024-05-09T18:03:14.080Z,102333.91
2024-05-09T18:05:42.896Z,102332.53
2024-05-09T18:08:16.611Z,102317.59
2024-05-09T18:10:44.635Z,102331.25
2024-05-09T18:13:16.089Z,102331.00
2024-05-09T18:15:43.656Z,102335.34
2024-05-09T18:18:14.241Z,102328.19
2024-05-09T18:20:44.923Z,102333.31
2024-05-09T18:23:19.574Z,102333.81
2024-05-09T18:25:47.273Z,102318.97
2024-05-09T18:28:17.925Z,102315.47
2024-05-09T18:30:45.389Z,102340.78
2024-05-09T18:33:15.706Z,102347.44
2024-05-09T18:35:43.225Z,102340.16
2024-05-09T18:38:13.267Z,102345.97
2024-05-09T18:40:45.924Z,102362.66
2024-05-09T18:43:20.110Z,102355.06
2024-05-09T18:45:49.237Z,102359.00
2024-05-09T18:48:19.269Z,102367.34
2024-05-09T18:50:46.493Z,102370.16
2024-05-09T18:53:16.848Z,102362.31
2024-05-09T18:55:46.685Z,102374.75
2024-05-09T18:58:17.324Z,102381.28
2024-05-09T19:00:47.208Z,102376.19
2024-05-09T19:03:19.803Z,102378.81
2024-05-09T19:05:47.345Z,102375.34
2024-05-09T19:08:17.330Z,102388.00
2024-05-09T19:10:47.253Z,102392.59
2024-05-09T19:13:17.150Z,102391.03
2024-05-09T19:15:44.749Z,102378.78
2024-05-09T19:18:15.431Z,102362.97
2024-05-09T19:20:43.067Z,102372.81
2024-05-09T19:23:13.082Z,102361.34
2024-05-09T19:25:40.586Z,102371.53
2024-05-09T19:28:13.159Z,102368.22
2024-05-09T19:30:42.364Z,102370.56
2024-05-09T19:33:13.936Z,102361.38
2024-05-09T19:35:41.905Z,102359.81
2024-05-09T19:38:12.260Z,102351.53
2024-05-09T19:40:39.489Z,102368.50
2024-05-09T19:43:12.203Z,102376.03
2024-05-09T19:45:39.686Z,102375.66
2024-05-09T19:48:10.720Z,102374.69
2024-05-09T19:50:43.055Z,102369.72
2024-05-09T19:53:14.780Z,102374.16
2024-05-09T19:55:42.229Z,102367.28
2024-05-09T19:58:14.770Z,102381.13
2024-05-09T20:00:43.683Z,102381.66
2024-05-09T20:03:15.506Z,102373.53
2024-05-09T20:05:44.602Z,102366.75
2024-05-09T20:08:15.156Z,102385.56
2024-05-09T20:10:42.606Z,102371.66
2024-05-09T20:13:15.965Z,102374.34
2024-05-09T20:15:43.247Z,102384.44
2024-05-09T20:18:13.255Z,102371.75
2024-05-09T20:20:43.005Z,102379.84
2024-05-09T20:23:14.720Z,102352.56
2024-05-09T20:25:42.082Z,102396.91
2024-05-09T20:28:14.594Z,102393.84
2024-05-09T20:30:42.091Z,102391.84
2024-05-09T20:33:12.443Z,102406.22
2024-05-09T20:35:39.800Z,102406.47
2024-05-09T20:38:09.716Z,102405.84
2024-05-09T20:40:39.074Z,102398.88
2024-05-09T20:43:10.788Z,102380.91
2024-05-09T20:45:41.191Z,102409.81
2024-05-09T20:48:11.929Z,102406.59
2024-05-09T20:50:41.744Z,102408.59
2024-05-09T20:53:13.857Z,102402.69
2024-05-09T20:55:42.021Z,102363.00
2024-05-09T20:58:12.166Z,102394.00
2024-05-09T21:00:44.861Z,102394.06
2024-05-09T21:03:17.318Z,102389.84
2024-05-09T21:05:45.791Z,102347.41
2024-05-09T21:08:16.042Z,102396.63
2024-05-09T21:10:43.443Z,102396.06
2024-05-09T21:13:13.675Z,102394.69
2024-05-09T21:15:43.651Z,102389.66
2024-05-09T21:18:13.515Z,102380.22
2024-05-09T21:20:40.732Z,102389.88
2024-05-09T21:23:10.556Z,102385.47
2024-05-09T21:25:37.776Z,102389.97
2024-05-09T21:28:08.094Z,102391.88
2024-05-09T21:30:41.536Z,102378.00
2024-05-09T21:33:15.717Z,102379.50
2024-05-09T21:35:43.570Z,102379.13
2024-05-09T21:38:14.609Z,102388.91
2024-05-09T21:40:42.148Z,102382.19
2024-05-09T21:43:11.994Z,102380.00
2024-05-09T21:45:39.296Z,102388.00
2024-05-09T21:48:10.365Z,102384.81
2024-05-09T21:50:42.140Z,102375.66
2024-05-09T21:53:13.491Z,102380.03
2024-05-09T21:55:41.337Z,102384.94
2024-05-09T21:58:11.119Z,102384.13
2024-05-09T22:00:39.637Z,102370.25
2024-05-09T22:03:10.915Z,102372.28
2024-05-09T22:05:44.390Z,102387.03
2024-05-09T22:08:14.699Z,102383.38
2024-05-09T22:10:42.177Z,102385.28
2024-05-09T22:13:12.207Z,102385.38
2024-05-09T22:15:40.460Z,102381.13
2024-05-09T22:18:11.583Z,102382.31
2024-05-09T22:20:45.454Z,102379.06
2024-05-09T22:23:16.416Z,102359.13
2024-05-09T22:25:43.640Z,102388.28
2024-05-09T22:28:15.579Z,102344.50
2024-05-09T22:30:46.000Z,102343.66
2024-05-09T22:33:16.402Z,102371.66
2024-05-09T22:35:47.618Z,102365.47
2024-05-09T22:38:17.457Z,102370.31
2024-05-09T22:40:48.423Z,102357.09
2024-05-09T22:43:23.829Z,102370.94
2024-05-09T22:45:52.475Z,102361.41
2024-05-09T22:48:23.799Z,102369.47
2024-05-09T22:50:54.276Z,102357.13
2024-05-09T22:53:24.781Z,102371.28
2024-05-09T22:55:52.153Z,102377.38
2024-05-09T22:58:24.024Z,102372.16
2024-05-09T23:00:51.718Z,102352.84
2024-05-09T23:03:22.846Z,102360.78
2024-05-09T23:05:50.400Z,102368.78
2024-05-09T23:08:22.823Z,102360.91
2024-05-09T23:10:50.002Z,102362.06
2024-05-09T23:13:20.090Z,102353.34
2024-05-09T23:15:47.486Z,102337.78
2024-05-09T23:18:17.369Z,102364.31
2024-05-09T23:20:44.749Z,102341.47
2024-05-09T23:23:14.544Z,102354.13
2024-05-09T23:25:44.379Z,102348.16
2024-05-09T23:28:14.250Z,102357.22
2024-05-09T23:30:42.256Z,102358.22
2024-05-09T23:33:13.433Z,102361.94
2024-05-09T23:35:41.756Z,102342.06
2024-05-09T23:38:11.711Z,102359.72
2024-05-09T23:40:41.001Z,102361.88
2024-05-09T23:43:14.781Z,102364.44
2024-05-09T23:45:42.567Z,102342.47
2024-05-09T23:48:12.790Z,102334.50
2024-05-09T23:50:40.850Z,102351.25
2024-05-09T23:53:11.440Z,102349.38
2024-05-09T23:55:39.012Z,102356.50
2024-05-09T23:58:09.296Z,102351.25
